Time;durP1;ratioP1;P1;durP2;ratioP2;P2;SDS_P1;SDS_P2;PMS_P1;PMS_P2;Temp;Humidity;BMP_temperature;BMP_pressure;BME280_temperature;BME280_humidity;BME280_pressure;Samples;Min_cycle;Max_cycle;Signal;HPM_P1;HPM_P2
2023/08/09 00:01:26;;;;;;;0.38;0.30;;;;;;;;;;5820122;28;20037;-82
2023/08/09 00:04:17;;;;;;;1.20;0.73;;;;;;;;;;5832867;28;20057;-80
2023/08/09 00:07:08;;;;;;;1.25;0.68;;;;;;;;;;5841539;28;20046;-80
2023/08/09 00:09:59;;;;;;;0.28;0.28;;;;;;;;;;5842106;28;20121;-80
2023/08/09 00:12:49;;;;;;;0.98;0.65;;;;;;;;;;5841974;28;20396;-80
2023/08/09 00:15:40;;;;;;;1.17;0.73;;;;;;;;;;5841456;28;20077;-80
2023/08/09 00:18:31;;;;;;;1.48;0.70;;;;;;;;;;5841376;28;20041;-80
2023/08/09 00:21:22;;;;;;;0.40;0.40;;;;;;;;;;5841455;28;20149;-81
2023/08/09 00:24:13;;;;;;;0.25;0.25;;;;;;;;;;5841519;28;20056;-80
2023/08/09 00:27:04;;;;;;;0.35;0.35;;;;;;;;;;5841287;28;20053;-80
2023/08/09 00:29:55;;;;;;;0.30;0.30;;;;;;;;;;5841096;28;20042;-79
2023/08/09 00:32:46;;;;;;;0.40;0.40;;;;;;;;;;5841217;28;20056;-79
2023/08/09 00:35:37;;;;;;;0.63;0.25;;;;;;;;;;5841353;28;20046;-81
2023/08/09 00:38:27;;;;;;;0.50;0.50;;;;;;;;;;5841371;28;20046;-81
2023/08/09 00:41:19;;;;;;;0.45;0.45;;;;;;;;;;5841067;28;20050;-81
2023/08/09 00:44:10;;;;;;;0.28;0.28;;;;;;;;;;5841240;28;20052;-80
2023/08/09 00:47:01;;;;;;;0.43;0.40;;;;;;;;;;5841416;28;20077;-81
2023/08/09 00:49:52;;;;;;;1.27;0.40;;;;;;;;;;5841195;28;20042;-82
2023/08/09 00:52:44;;;;;;;1.95;0.60;;;;;;;;;;5841203;28;20046;-81
2023/08/09 00:55:35;;;;;;;0.47;0.47;;;;;;;;;;5843132;28;20042;-81
2023/08/09 00:58:26;;;;;;;12.15;0.73;;;;;;;;;;5845761;28;20052;-81
2023/08/09 01:01:16;;;;;;;0.40;0.35;;;;;;;;;;5845461;28;20058;-82
2023/08/09 01:04:08;;;;;;;0.68;0.68;;;;;;;;;;5845370;28;20049;-81
2023/08/09 01:07:23;;;;;;;0.75;0.57;;;;;;;;;;5844372;28;20481;-81
2023/08/09 01:10:16;;;;;;;0.80;0.75;;;;;;;;;;5843865;28;20038;-80
2023/08/09 01:13:07;;;;;;;0.20;0.20;;;;;;;;;;5845155;28;20046;-82
2023/08/09 01:15:59;;;;;;;0.50;0.50;;;;;;;;;;5845772;28;20050;-83
2023/08/09 01:18:52;;;;;;;0.52;0.50;;;;;;;;;;5843853;28;20072;-81
2023/08/09 01:21:44;;;;;;;1.10;0.75;;;;;;;;;;5844895;28;20068;-82
2023/08/09 01:24:35;;;;;;;0.90;0.65;;;;;;;;;;5843796;28;20046;-79
2023/08/09 01:27:26;;;;;;;0.75;0.47;;;;;;;;;;5843718;28;20098;-82
2023/08/09 01:30:17;;;;;;;0.68;0.55;;;;;;;;;;5843384;28;20052;-82
2023/08/09 01:33:08;;;;;;;0.47;0.40;;;;;;;;;;5844920;28;20068;-82
2023/08/09 01:36:23;;;;;;;0.73;0.60;;;;;;;;;;5845117;28;20520;-79
2023/08/09 01:39:20;;;;;;;0.68;0.68;;;;;;;;;;5843123;28;20050;-81
2023/08/09 01:42:12;;;;;;;0.65;0.40;;;;;;;;;;5843419;28;20129;-79
2023/08/09 01:45:06;;;;;;;0.32;0.30;;;;;;;;;;5844492;28;20056;-83
2023/08/09 01:47:57;;;;;;;0.70;0.70;;;;;;;;;;5843438;28;20060;-80
2023/08/09 01:50:48;;;;;;;1.88;0.50;;;;;;;;;;5844579;28;20052;-80
2023/08/09 01:53:39;;;;;;;0.60;0.60;;;;;;;;;;5844296;28;20052;-82
2023/08/09 01:56:31;;;;;;;0.25;0.25;;;;;;;;;;5844270;28;20046;-83
2023/08/09 01:59:23;;;;;;;0.25;0.20;;;;;;;;;;5844120;28;20084;-82
2023/08/09 02:02:13;;;;;;;0.40;0.40;;;;;;;;;;5844013;28;20069;-81
2023/08/09 02:05:05;;;;;;;2.28;0.60;;;;;;;;;;5844280;28;20125;-82
2023/08/09 02:07:56;;;;;;;7.32;1.10;;;;;;;;;;5843381;28;20072;-80
2023/08/09 02:10:47;;;;;;;1.58;0.60;;;;;;;;;;5844005;28;20054;-80
2023/08/09 02:13:39;;;;;;;1.90;0.60;;;;;;;;;;5843669;28;20479;-79
2023/08/09 02:16:29;;;;;;;0.50;0.40;;;;;;;;;;5843713;28;20564;-81
2023/08/09 02:19:20;;;;;;;1.55;0.80;;;;;;;;;;5843907;28;20120;-81
2023/08/09 02:22:11;;;;;;;1.42;0.68;;;;;;;;;;5843934;28;20064;-79
2023/08/09 02:25:03;;;;;;;0.20;0.20;;;;;;;;;;5844378;28;20060;-82
2023/08/09 02:27:54;;;;;;;0.45;0.45;;;;;;;;;;5843703;28;20046;-81
2023/08/09 02:30:46;;;;;;;0.60;0.60;;;;;;;;;;5843550;28;20511;-80
2023/08/09 02:33:37;;;;;;;0.60;0.60;;;;;;;;;;5843729;28;20390;-80
2023/08/09 02:36:28;;;;;;;0.88;0.63;;;;;;;;;;5842221;28;20042;-81
2023/08/09 02:39:19;;;;;;;1.25;0.75;;;;;;;;;;5842786;28;20564;-82
2023/08/09 02:42:10;;;;;;;0.50;0.47;;;;;;;;;;5843217;28;20420;-80
2023/08/09 02:45:01;;;;;;;0.30;0.28;;;;;;;;;;5843734;28;20049;-80
2023/08/09 02:47:52;;;;;;;1.25;0.40;;;;;;;;;;5843037;28;20092;-81
2023/08/09 02:50:43;;;;;;;0.63;0.60;;;;;;;;;;5843104;28;20501;-79
2023/08/09 02:53:56;;;;;;;0.52;0.52;;;;;;;;;;5841664;28;20119;-80
2023/08/09 02:56:46;;;;;;;0.90;0.80;;;;;;;;;;5842969;28;20053;-80
2023/08/09 02:59:38;;;;;;;5.10;0.80;;;;;;;;;;5843023;28;20485;-79
2023/08/09 03:02:28;;;;;;;0.40;0.40;;;;;;;;;;5842962;28;20044;-79
2023/08/09 03:05:19;;;;;;;0.68;0.68;;;;;;;;;;5842665;28;20076;-80
2023/08/09 03:08:10;;;;;;;0.75;0.70;;;;;;;;;;5842603;28;20076;-81
2023/08/09 03:11:01;;;;;;;1.23;0.90;;;;;;;;;;5842823;28;20077;-81
2023/08/09 03:13:52;;;;;;;2.85;0.80;;;;;;;;;;5843035;28;20046;-80
2023/08/09 03:16:43;;;;;;;0.40;0.40;;;;;;;;;;5842623;28;20060;-80
2023/08/09 03:19:34;;;;;;;1.08;0.98;;;;;;;;;;5842408;28;20050;-79
2023/08/09 03:22:25;;;;;;;1.25;0.95;;;;;;;;;;5842694;28;20123;-78
2023/08/09 03:25:16;;;;;;;0.73;0.73;;;;;;;;;;5842528;28;20045;-82
2023/08/09 03:28:07;;;;;;;0.57;0.57;;;;;;;;;;5840925;28;20046;-78
2023/08/09 03:30:58;;;;;;;0.75;0.63;;;;;;;;;;5842830;28;20053;-81
2023/08/09 03:33:49;;;;;;;0.38;0.38;;;;;;;;;;5842392;28;20520;-81
2023/08/09 03:36:39;;;;;;;0.38;0.38;;;;;;;;;;5842109;28;20145;-79
2023/08/09 03:39:31;;;;;;;0.75;0.40;;;;;;;;;;5840862;28;20037;-80
2023/08/09 03:42:22;;;;;;;0.98;0.45;;;;;;;;;;5842361;28;20077;-81
2023/08/09 03:45:14;;;;;;;0.60;0.43;;;;;;;;;;5842200;28;20050;-80
2023/08/09 03:48:04;;;;;;;0.30;0.30;;;;;;;;;;5841769;28;20053;-80
2023/08/09 03:50:55;;;;;;;0.63;0.52;;;;;;;;;;5842617;28;20396;-79
2023/08/09 03:53:46;;;;;;;0.77;0.57;;;;;;;;;;5841621;28;20429;-81
2023/08/09 03:56:37;;;;;;;0.95;0.77;;;;;;;;;;5841806;28;20042;-81
2023/08/09 03:59:28;;;;;;;0.50;0.50;;;;;;;;;;5841865;28;20188;-79
2023/08/09 04:02:19;;;;;;;0.50;0.50;;;;;;;;;;5841671;28;20455;-80
2023/08/09 04:05:10;;;;;;;3.13;0.95;;;;;;;;;;5841554;28;20058;-81
2023/08/09 04:08:02;;;;;;;13.77;0.75;;;;;;;;;;5841777;28;20058;-81
2023/08/09 04:10:56;;;;;;;0.98;0.40;;;;;;;;;;5841914;28;20554;-79
2023/08/09 04:13:47;;;;;;;2.83;0.70;;;;;;;;;;5841711;28;20133;-81
2023/08/09 04:16:38;;;;;;;3.88;1.30;;;;;;;;;;5841506;28;20445;-81
2023/08/09 04:19:29;;;;;;;0.28;0.28;;;;;;;;;;5841653;28;20465;-80
2023/08/09 04:22:19;;;;;;;0.30;0.30;;;;;;;;;;5841334;28;20060;-81
2023/08/09 04:25:10;;;;;;;0.80;0.75;;;;;;;;;;5841707;28;20147;-80
2023/08/09 04:28:02;;;;;;;0.65;0.65;;;;;;;;;;5841510;28;20045;-81
2023/08/09 04:30:53;;;;;;;1.00;0.80;;;;;;;;;;5844464;28;20520;-79
2023/08/09 04:33:49;;;;;;;1.45;0.95;;;;;;;;;;5846083;28;20054;-78
2023/08/09 04:36:40;;;;;;;1.05;0.90;;;;;;;;;;5845810;28;20045;-79
2023/08/09 04:39:32;;;;;;;1.30;1.05;;;;;;;;;;5846208;28;20073;-81
2023/08/09 04:42:23;;;;;;;0.60;0.60;;;;;;;;;;5844728;28;20046;-81
2023/08/09 04:45:14;;;;;;;4.18;0.98;;;;;;;;;;5845903;28;20046;-80
2023/08/09 04:48:06;;;;;;;2.40;0.90;;;;;;;;;;5845838;28;20361;-80
2023/08/09 04:50:57;;;;;;;0.68;0.55;;;;;;;;;;5846289;28;20129;-80
2023/08/09 04:53:47;;;;;;;1.10;0.68;;;;;;;;;;5846027;28;20065;-81
2023/08/09 04:56:39;;;;;;;1.08;0.80;;;;;;;;;;5845538;28;20057;-79
2023/08/09 04:59:30;;;;;;;1.45;1.20;;;;;;;;;;5844911;28;20125;-81
2023/08/09 05:02:20;;;;;;;0.40;0.40;;;;;;;;;;5845912;28;20049;-80
2023/08/09 05:05:11;;;;;;;1.20;0.85;;;;;;;;;;5845877;28;20067;-80
2023/08/09 05:08:03;;;;;;;0.80;0.65;;;;;;;;;;5845950;28;20046;-79
2023/08/09 05:10:54;;;;;;;0.98;0.88;;;;;;;;;;5844001;28;20054;-81
2023/08/09 05:13:45;;;;;;;3.20;1.48;;;;;;;;;;5845463;28;20061;-80
2023/08/09 05:16:36;;;;;;;1.65;1.10;;;;;;;;;;5845085;28;20038;-79
2023/08/09 05:19:27;;;;;;;4.00;1.30;;;;;;;;;;5845158;28;20056;-79
2023/08/09 05:22:19;;;;;;;0.65;0.65;;;;;;;;;;5845114;28;20057;-80
2023/08/09 05:25:11;;;;;;;1.25;1.13;;;;;;;;;;5845189;28;20045;-79
2023/08/09 05:28:02;;;;;;;2.17;1.30;;;;;;;;;;5845204;28;20531;-80
2023/08/09 05:30:53;;;;;;;3.13;0.90;;;;;;;;;;5845775;28;20041;-80
2023/08/09 05:33:44;;;;;;;2.38;1.25;;;;;;;;;;5845426;28;20049;-79
2023/08/09 05:36:34;;;;;;;4.05;1.25;;;;;;;;;;5845938;28;20500;-79
2023/08/09 05:39:25;;;;;;;1.55;1.13;;;;;;;;;;5845598;28;20049;-79
2023/08/09 05:42:16;;;;;;;1.90;1.35;;;;;;;;;;5843981;28;20041;-81
2023/08/09 05:45:08;;;;;;;1.45;0.90;;;;;;;;;;5845337;28;20052;-80
2023/08/09 05:47:59;;;;;;;2.28;1.05;;;;;;;;;;5844878;28;20054;-79
2023/08/09 05:50:50;;;;;;;4.90;2.30;;;;;;;;;;5844814;28;20050;-79
2023/08/09 05:53:42;;;;;;;1.63;1.35;;;;;;;;;;5844516;28;20412;-79
2023/08/09 05:56:32;;;;;;;1.88;1.08;;;;;;;;;;5844370;28;20050;-79
2023/08/09 05:59:23;;;;;;;1.25;0.95;;;;;;;;;;5844505;28;20117;-81
2023/08/09 06:02:14;;;;;;;1.70;1.38;;;;;;;;;;5844404;28;20038;-78
2023/08/09 06:05:05;;;;;;;0.70;0.70;;;;;;;;;;5843488;28;20056;-80
2023/08/09 06:07:56;;;;;;;0.82;0.73;;;;;;;;;;5844788;28;20049;-81
2023/08/09 06:10:47;;;;;;;3.25;1.58;;;;;;;;;;5844559;28;20413;-79
2023/08/09 06:13:38;;;;;;;1.58;0.75;;;;;;;;;;5844049;28;20057;-80
2023/08/09 06:16:29;;;;;;;3.05;1.25;;;;;;;;;;5843815;28;20046;-81
2023/08/09 06:19:20;;;;;;;13.95;1.58;;;;;;;;;;5844210;28;20056;-82
2023/08/09 06:22:11;;;;;;;2.65;1.00;;;;;;;;;;5843787;28;20133;-80
2023/08/09 06:25:02;;;;;;;1.60;0.90;;;;;;;;;;5843824;28;20421;-83
2023/08/09 06:27:54;;;;;;;2.55;1.02;;;;;;;;;;5842930;28;20050;-81
2023/08/09 06:30:45;;;;;;;3.35;0.60;;;;;;;;;;5842443;28;20046;-82
2023/08/09 06:33:42;;;;;;;0.98;0.85;;;;;;;;;;5842491;28;20046;-80
2023/08/09 06:36:34;;;;;;;9.85;1.15;;;;;;;;;;5843496;28;20068;-81
2023/08/09 06:39:24;;;;;;;0.43;0.38;;;;;;;;;;5842833;28;20469;-80
2023/08/09 06:42:16;;;;;;;1.58;0.68;;;;;;;;;;5842995;28;20528;-82
2023/08/09 06:45:08;;;;;;;1.63;0.77;;;;;;;;;;5843447;28;20061;-84
2023/08/09 06:47:58;;;;;;;2.05;0.77;;;;;;;;;;5842105;28;20532;-82
2023/08/09 06:50:49;;;;;;;0.95;0.63;;;;;;;;;;5843202;28;20073;-82
2023/08/09 06:53:40;;;;;;;1.40;0.90;;;;;;;;;;5842639;28;20053;-81
2023/08/09 06:56:31;;;;;;;0.77;0.47;;;;;;;;;;5843380;28;20404;-81
2023/08/09 06:59:22;;;;;;;5.00;1.00;;;;;;;;;;5843459;28;20061;-81
2023/08/09 07:02:13;;;;;;;5.00;1.02;;;;;;;;;;5843280;28;20398;-80
2023/08/09 07:05:15;;;;;;;0.13;0.13;;;;;;;;;;5843126;28;20049;-80
2023/08/09 07:08:06;;;;;;;0.28;0.28;;;;;;;;;;5843528;28;20053;-82
2023/08/09 07:10:56;;;;;;;1.23;0.90;;;;;;;;;;5843970;28;20053;-80
2023/08/09 07:13:48;;;;;;;0.35;0.20;;;;;;;;;;5843157;28;20056;-82
2023/08/09 07:16:38;;;;;;;0.73;0.63;;;;;;;;;;5843002;28;20058;-82
2023/08/09 07:19:30;;;;;;;2.40;1.15;;;;;;;;;;5843823;28;20065;-81
2023/08/09 07:22:20;;;;;;;1.35;0.82;;;;;;;;;;5844051;28;20038;-80
2023/08/09 07:25:15;;;;;;;0.60;0.38;;;;;;;;;;5844751;28;20052;-80
2023/08/09 07:28:06;;;;;;;2.80;0.68;;;;;;;;;;5844980;28;20512;-79
2023/08/09 07:30:57;;;;;;;0.75;0.55;;;;;;;;;;5843265;28;20117;-81
2023/08/09 07:33:49;;;;;;;0.63;0.52;;;;;;;;;;5844538;28;20046;-80
2023/08/09 07:36:40;;;;;;;1.02;0.68;;;;;;;;;;5845671;28;20482;-80
2023/08/09 07:39:31;;;;;;;0.35;0.30;;;;;;;;;;5845631;28;20046;-80
2023/08/09 07:42:22;;;;;;;0.45;0.30;;;;;;;;;;5844833;28;20414;-82
2023/08/09 07:45:12;;;;;;;1.35;1.05;;;;;;;;;;5842481;28;20564;-81
2023/08/09 07:48:04;;;;;;;0.77;0.47;;;;;;;;;;5845161;28;20133;-79
2023/08/09 07:50:55;;;;;;;0.40;0.40;;;;;;;;;;5844078;28;20057;-79
2023/08/09 07:53:46;;;;;;;1.00;0.52;;;;;;;;;;5844123;28;20133;-80
2023/08/09 07:56:38;;;;;;;2.67;0.63;;;;;;;;;;5847161;28;20105;-82
2023/08/09 07:59:29;;;;;;;0.20;0.20;;;;;;;;;;5847013;28;20120;-83
2023/08/09 08:02:20;;;;;;;0.35;0.35;;;;;;;;;;5846967;28;20046;-79
2023/08/09 08:05:15;;;;;;;0.45;0.43;;;;;;;;;;5845226;28;20048;-80
2023/08/09 08:08:06;;;;;;;0.50;0.45;;;;;;;;;;5847529;28;20088;-85
2023/08/09 08:10:57;;;;;;;1.08;0.75;;;;;;;;;;5846783;28;20437;-78
2023/08/09 08:13:48;;;;;;;0.45;0.45;;;;;;;;;;5848733;28;20050;-79
2023/08/09 08:16:39;;;;;;;1.08;0.57;;;;;;;;;;5848035;28;20046;-78
2023/08/09 08:19:30;;;;;;;1.45;0.68;;;;;;;;;;5849025;28;20041;-81
2023/08/09 08:22:21;;;;;;;0.82;0.60;;;;;;;;;;5848576;28;20941;-79
2023/08/09 08:25:13;;;;;;;0.68;0.60;;;;;;;;;;5850394;28;20493;-77
2023/08/09 08:28:05;;;;;;;0.20;0.20;;;;;;;;;;5849396;28;20457;-78
2023/08/09 08:30:56;;;;;;;0.47;0.43;;;;;;;;;;5849656;28;20057;-77
2023/08/09 08:33:49;;;;;;;0.40;0.20;;;;;;;;;;5844338;28;20148;-78
2023/08/09 08:36:39;;;;;;;0.38;0.20;;;;;;;;;;5845784;28;20042;-79
2023/08/09 08:39:35;;;;;;;0.20;0.20;;;;;;;;;;5845980;28;20042;-78
2023/08/09 08:42:27;;;;;;;0.98;0.65;;;;;;;;;;5845419;28;20401;-78
2023/08/09 08:45:19;;;;;;;0.77;0.30;;;;;;;;;;5843568;28;20050;-80
2023/08/09 08:48:12;;;;;;;1.75;0.88;;;;;;;;;;5847016;28;20096;-79
2023/08/09 08:51:05;;;;;;;0.80;0.57;;;;;;;;;;5843716;28;20042;-79
2023/08/09 08:53:57;;;;;;;0.82;0.60;;;;;;;;;;5847707;28;20046;-80
2023/08/09 08:56:48;;;;;;;0.82;0.80;;;;;;;;;;5846437;28;20125;-76
2023/08/09 08:59:39;;;;;;;1.35;0.70;;;;;;;;;;5848866;28;20126;-78
2023/08/09 09:02:30;;;;;;;0.52;0.40;;;;;;;;;;5851128;28;20102;-81
2023/08/09 09:05:22;;;;;;;0.43;0.40;;;;;;;;;;5850829;28;20064;-78
2023/08/09 09:08:14;;;;;;;0.45;0.32;;;;;;;;;;5847865;28;20046;-76
2023/08/09 09:11:15;;;;;;;0.93;0.60;;;;;;;;;;5849811;28;20076;-75
2023/08/09 09:14:11;;;;;;;0.25;0.25;;;;;;;;;;5851556;28;20060;-78
2023/08/09 09:17:02;;;;;;;2.67;0.75;;;;;;;;;;5856040;28;20061;-79
2023/08/09 09:19:54;;;;;;;6.47;0.77;;;;;;;;;;5854823;28;20049;-76
2023/08/09 09:22:46;;;;;;;1.85;0.82;;;;;;;;;;5856299;28;20519;-78
2023/08/09 09:25:37;;;;;;;0.30;0.20;;;;;;;;;;5851996;28;20045;-78
2023/08/09 09:28:28;;;;;;;0.40;0.40;;;;;;;;;;5852152;28;20132;-79
2023/08/09 09:31:19;;;;;;;0.60;0.38;;;;;;;;;;5852561;28;20543;-80
2023/08/09 09:34:10;;;;;;;0.40;0.38;;;;;;;;;;5854593;28;20416;-77
2023/08/09 09:37:01;;;;;;;0.90;0.50;;;;;;;;;;5854311;28;20137;-78
2023/08/09 09:39:52;;;;;;;1.13;0.40;;;;;;;;;;5855681;28;20125;-76
2023/08/09 09:42:43;;;;;;;0.73;0.50;;;;;;;;;;5853755;28;20045;-78
2023/08/09 09:45:36;;;;;;;0.43;0.40;;;;;;;;;;5851740;28;20049;-75
2023/08/09 09:48:29;;;;;;;1.35;0.65;;;;;;;;;;5852808;28;20050;-76
2023/08/09 09:51:20;;;;;;;0.55;0.40;;;;;;;;;;5854204;28;20145;-77
2023/08/09 09:54:11;;;;;;;0.93;0.30;;;;;;;;;;5854258;28;20370;-80
2023/08/09 09:57:05;;;;;;;0.30;0.22;;;;;;;;;;5851087;28;20045;-78
2023/08/09 09:59:59;;;;;;;1.40;0.55;;;;;;;;;;5850918;28;20049;-80
2023/08/09 10:02:52;;;;;;;0.25;0.25;;;;;;;;;;5828949;28;20137;-81
2023/08/09 10:05:46;;;;;;;0.40;0.40;;;;;;;;;;5827321;28;20532;-76
2023/08/09 10:08:38;;;;;;;0.95;0.30;;;;;;;;;;5828679;28;20382;-79
2023/08/09 10:11:29;;;;;;;0.40;0.15;;;;;;;;;;5829048;28;20050;-78
2023/08/09 10:14:21;;;;;;;0.38;0.30;;;;;;;;;;5828379;28;20054;-78
2023/08/09 10:17:13;;;;;;;0.38;0.38;;;;;;;;;;5829508;28;20097;-78
2023/08/09 10:20:08;;;;;;;0.50;0.47;;;;;;;;;;5832424;28;20102;-78
2023/08/09 10:22:59;;;;;;;0.93;0.65;;;;;;;;;;5832258;28;20038;-78
2023/08/09 10:25:54;;;;;;;2.45;0.77;;;;;;;;;;5853280;28;20050;-78
2023/08/09 10:28:48;;;;;;;1.40;0.73;;;;;;;;;;5852783;28;20056;-77
2023/08/09 10:32:00;;;;;;;1.23;0.55;;;;;;;;;;5854635;28;20053;-80
2023/08/09 10:34:51;;;;;;;1.33;0.82;;;;;;;;;;5855147;28;20061;-77
2023/08/09 10:37:43;;;;;;;0.57;0.57;;;;;;;;;;5855297;28;20046;-76
2023/08/09 10:40:36;;;;;;;1.60;0.90;;;;;;;;;;5854713;28;20057;-80
2023/08/09 10:43:30;;;;;;;1.90;1.13;;;;;;;;;;5853750;28;20382;-76
2023/08/09 10:46:24;;;;;;;0.82;0.70;;;;;;;;;;5852819;28;20049;-76
2023/08/09 10:49:15;;;;;;;0.50;0.50;;;;;;;;;;5852912;28;20046;-78
2023/08/09 10:52:17;;;;;;;9.55;0.90;;;;;;;;;;5848063;28;20057;-80
2023/08/09 10:55:18;;;;;;;2.95;1.30;;;;;;;;;;5849080;28;20061;-81
2023/08/09 10:58:13;;;;;;;1.20;0.60;;;;;;;;;;5852402;28;20042;-80
2023/08/09 11:01:05;;;;;;;3.28;0.40;;;;;;;;;;5850775;28;20078;-77
2023/08/09 11:03:56;;;;;;;3.35;0.40;;;;;;;;;;5850841;28;20046;-77
2023/08/09 11:06:49;;;;;;;0.30;0.30;;;;;;;;;;5852573;28;20472;-79
2023/08/09 11:09:41;;;;;;;0.75;0.43;;;;;;;;;;5848964;28;20373;-78
2023/08/09 11:12:32;;;;;;;0.77;0.75;;;;;;;;;;5850116;28;20053;-81
2023/08/09 11:15:23;;;;;;;0.17;0.13;;;;;;;;;;5852241;28;20133;-78
2023/08/09 11:18:15;;;;;;;1.48;1.30;;;;;;;;;;5848850;28;20062;-78
2023/08/09 11:21:07;;;;;;;1.30;1.20;;;;;;;;;;5847816;28;20049;-78
2023/08/09 11:23:58;;;;;;;0.63;0.55;;;;;;;;;;5850424;28;20046;-77
2023/08/09 11:26:56;;;;;;;2.70;1.27;;;;;;;;;;5850976;28;20073;-79
2023/08/09 11:29:47;;;;;;;4.47;1.23;;;;;;;;;;5848704;28;20057;-77
2023/08/09 11:32:39;;;;;;;1.25;0.73;;;;;;;;;;5846237;28;20107;-78
2023/08/09 11:35:43;;;;;;;3.35;0.70;;;;;;;;;;5847782;28;20042;-82
2023/08/09 11:38:35;;;;;;;0.98;0.70;;;;;;;;;;5842189;28;20078;-81
2023/08/09 11:41:38;;;;;;;2.42;1.08;;;;;;;;;;5842009;28;20038;-79
2023/08/09 11:44:36;;;;;;;2.25;1.17;;;;;;;;;;5842025;28;20164;-80
2023/08/09 11:47:27;;;;;;;1.40;0.85;;;;;;;;;;5841914;28;20038;-79
2023/08/09 11:50:24;;;;;;;4.28;1.58;;;;;;;;;;5841885;28;20042;-79
2023/08/09 11:53:16;;;;;;;1.05;0.90;;;;;;;;;;5842176;28;20049;-79
2023/08/09 11:56:12;;;;;;;0.30;0.30;;;;;;;;;;5840724;28;20056;-80
2023/08/09 11:59:04;;;;;;;0.60;0.50;;;;;;;;;;5841972;28;20117;-80
2023/08/09 12:01:59;;;;;;;0.80;0.80;;;;;;;;;;5842552;28;20042;-79
2023/08/09 12:04:51;;;;;;;20.27;1.38;;;;;;;;;;5842444;28;20045;-79
2023/08/09 12:07:44;;;;;;;0.70;0.50;;;;;;;;;;5841709;28;20048;-80
2023/08/09 12:10:41;;;;;;;0.52;0.52;;;;;;;;;;5841829;28;20060;-79
2023/08/09 12:13:32;;;;;;;4.47;1.42;;;;;;;;;;5840658;28;20050;-81
2023/08/09 12:16:24;;;;;;;1.58;0.82;;;;;;;;;;5840329;28;20049;-79
2023/08/09 12:19:15;;;;;;;0.65;0.57;;;;;;;;;;5841707;28;20045;-79
2023/08/09 12:22:05;;;;;;;3.33;0.60;;;;;;;;;;5841790;28;20053;-80
2023/08/09 12:24:58;;;;;;;1.10;0.95;;;;;;;;;;5841732;28;20050;-79
2023/08/09 12:27:48;;;;;;;0.50;0.47;;;;;;;;;;5839787;28;20050;-81
2023/08/09 12:30:39;;;;;;;1.17;1.02;;;;;;;;;;5841173;28;20049;-79
2023/08/09 12:33:30;;;;;;;9.75;1.52;;;;;;;;;;5837822;28;20536;-80
2023/08/09 12:36:21;;;;;;;0.43;0.43;;;;;;;;;;5841073;28;20058;-79
2023/08/09 12:39:14;;;;;;;2.50;1.33;;;;;;;;;;5840830;28;20429;-78
2023/08/09 12:42:05;;;;;;;1.80;0.98;;;;;;;;;;5840319;28;20129;-79
2023/08/09 12:44:56;;;;;;;0.10;0.10;;;;;;;;;;5841774;28;20042;-79
2023/08/09 12:47:47;;;;;;;0.50;0.50;;;;;;;;;;5844866;28;20045;-79
2023/08/09 12:50:39;;;;;;;0.47;0.47;;;;;;;;;;5844114;28;20547;-78
2023/08/09 12:53:29;;;;;;;1.05;0.70;;;;;;;;;;5844128;28;20504;-79
2023/08/09 12:56:22;;;;;;;0.30;0.30;;;;;;;;;;5845500;28;20049;-79
2023/08/09 12:59:15;;;;;;;0.40;0.40;;;;;;;;;;5845591;28;20046;-78
2023/08/09 13:02:07;;;;;;;1.08;0.95;;;;;;;;;;5845489;28;20046;-80
2023/08/09 13:04:59;;;;;;;1.27;0.52;;;;;;;;;;5845955;28;20444;-80
2023/08/09 13:07:50;;;;;;;1.33;0.77;;;;;;;;;;5844224;28;20487;-79
2023/08/09 13:10:41;;;;;;;0.52;0.47;;;;;;;;;;5845795;28;20050;-79
2023/08/09 13:13:32;;;;;;;0.93;0.60;;;;;;;;;;5845266;28;20048;-79
2023/08/09 13:16:24;;;;;;;1.33;0.70;;;;;;;;;;5845448;28;20052;-79
2023/08/09 13:19:14;;;;;;;0.70;0.70;;;;;;;;;;5844980;28;20215;-79
2023/08/09 13:22:05;;;;;;;1.05;0.60;;;;;;;;;;5844853;28;20052;-79
2023/08/09 13:24:57;;;;;;;1.05;0.95;;;;;;;;;;5844514;28;20056;-79
2023/08/09 13:27:48;;;;;;;0.88;0.63;;;;;;;;;;5842757;28;20081;-78
2023/08/09 13:30:39;;;;;;;6.65;0.95;;;;;;;;;;5843906;28;20049;-79
2023/08/09 13:33:30;;;;;;;0.10;0.10;;;;;;;;;;5842917;28;20038;-80
2023/08/09 13:36:21;;;;;;;1.35;0.50;;;;;;;;;;5844834;28;20046;-80
2023/08/09 13:39:11;;;;;;;0.70;0.28;;;;;;;;;;5844951;28;20053;-78
2023/08/09 13:42:02;;;;;;;0.28;0.28;;;;;;;;;;5844596;28;20149;-78
2023/08/09 13:44:53;;;;;;;1.50;0.73;;;;;;;;;;5843527;28;20089;-78
2023/08/09 13:47:44;;;;;;;0.85;0.40;;;;;;;;;;5842408;28;20050;-78
2023/08/09 13:50:35;;;;;;;0.93;0.57;;;;;;;;;;5844302;28;20053;-77
2023/08/09 13:53:26;;;;;;;0.25;0.25;;;;;;;;;;5842966;28;20042;-79
2023/08/09 13:56:17;;;;;;;0.30;0.30;;;;;;;;;;5842931;28;20048;-78
2023/08/09 13:59:08;;;;;;;0.73;0.68;;;;;;;;;;5844038;28;20057;-78
2023/08/09 14:01:59;;;;;;;1.77;0.88;;;;;;;;;;5843433;28;20046;-78
2023/08/09 14:04:51;;;;;;;0.98;0.47;;;;;;;;;;5843989;28;20050;-78
2023/08/09 14:07:42;;;;;;;0.40;0.40;;;;;;;;;;5842454;28;20104;-79
2023/08/09 14:10:33;;;;;;;0.35;0.30;;;;;;;;;;5842696;28;20393;-78
2023/08/09 14:13:24;;;;;;;7.22;1.35;;;;;;;;;;5843351;28;20038;-77
2023/08/09 14:16:14;;;;;;;0.77;0.70;;;;;;;;;;5843965;28;20149;-78
2023/08/09 14:19:05;;;;;;;1.23;0.75;;;;;;;;;;5844100;28;20060;-77
2023/08/09 14:21:56;;;;;;;1.15;0.73;;;;;;;;;;5844520;28;20046;-79
2023/08/09 14:24:47;;;;;;;0.73;0.63;;;;;;;;;;5844286;28;20050;-78
2023/08/09 14:27:38;;;;;;;0.30;0.30;;;;;;;;;;5844190;28;20045;-78
2023/08/09 14:30:29;;;;;;;0.30;0.30;;;;;;;;;;5843987;28;20041;-77
2023/08/09 14:33:20;;;;;;;0.50;0.50;;;;;;;;;;5843976;28;20394;-77
2023/08/09 14:36:11;;;;;;;0.55;0.25;;;;;;;;;;5826358;28;20457;-78
2023/08/09 14:39:02;;;;;;;1.55;0.60;;;;;;;;;;5843821;28;20050;-79
2023/08/09 14:41:53;;;;;;;0.52;0.47;;;;;;;;;;5844178;28;20067;-79
2023/08/09 14:44:43;;;;;;;2.53;1.02;;;;;;;;;;5843964;28;20464;-80
2023/08/09 14:47:34;;;;;;;10.18;5.22;;;;;;;;;;5843192;28;20507;-80
2023/08/09 14:50:25;;;;;;;2.05;1.67;;;;;;;;;;5843555;28;20038;-82
2023/08/09 14:53:16;;;;;;;0.32;0.32;;;;;;;;;;5843317;28;20453;-80
2023/08/09 14:56:07;;;;;;;0.40;0.40;;;;;;;;;;5843394;28;20045;-80
2023/08/09 14:58:58;;;;;;;0.85;0.60;;;;;;;;;;5843343;28;20050;-79
2023/08/09 15:01:49;;;;;;;0.75;0.63;;;;;;;;;;5843034;28;20057;-80
2023/08/09 15:04:40;;;;;;;6.47;0.95;;;;;;;;;;5841912;28;20374;-81
2023/08/09 15:07:32;;;;;;;0.85;0.45;;;;;;;;;;5843301;28;20048;-81
2023/08/09 15:10:23;;;;;;;2.40;0.80;;;;;;;;;;5842779;28;20045;-80
2023/08/09 15:13:15;;;;;;;0.40;0.30;;;;;;;;;;5842300;28;20038;-80
2023/08/09 15:16:06;;;;;;;0.40;0.40;;;;;;;;;;5842637;28;20050;-80
2023/08/09 15:18:58;;;;;;;1.10;0.93;;;;;;;;;;5843185;28;20046;-81
2023/08/09 15:21:49;;;;;;;0.52;0.52;;;;;;;;;;5842463;28;20496;-80
2023/08/09 15:24:40;;;;;;;3.72;0.50;;;;;;;;;;5840970;28;20049;-81
2023/08/09 15:27:31;;;;;;;0.77;0.73;;;;;;;;;;5824917;28;20044;-81
2023/08/09 15:30:22;;;;;;;2.20;1.02;;;;;;;;;;5842538;28;20057;-81
2023/08/09 15:33:13;;;;;;;0.63;0.30;;;;;;;;;;5841063;28;20049;-81
2023/08/09 15:36:04;;;;;;;1.08;0.65;;;;;;;;;;5842654;28;20539;-81
2023/08/09 15:38:55;;;;;;;0.55;0.55;;;;;;;;;;5842800;28;20053;-85
2023/08/09 15:41:46;;;;;;;0.50;0.40;;;;;;;;;;5842459;28;20053;-79
2023/08/09 15:44:38;;;;;;;2.60;0.20;;;;;;;;;;5842545;28;20124;-78
2023/08/09 15:47:28;;;;;;;0.55;0.30;;;;;;;;;;5838595;28;20049;-80
2023/08/09 15:50:21;;;;;;;0.77;0.40;;;;;;;;;;5841462;28;20512;-79
2023/08/09 15:53:13;;;;;;;0.20;0.15;;;;;;;;;;5841306;28;20045;-78
2023/08/09 15:56:04;;;;;;;0.77;0.63;;;;;;;;;;5841904;28;20053;-79
2023/08/09 15:58:55;;;;;;;0.20;0.15;;;;;;;;;;5841415;28;20059;-78
2023/08/09 16:01:46;;;;;;;0.50;0.30;;;;;;;;;;5839946;28;20524;-81
2023/08/09 16:04:38;;;;;;;0.20;0.20;;;;;;;;;;5841593;28;20038;-78
2023/08/09 16:07:29;;;;;;;0.45;0.40;;;;;;;;;;5839992;28;20052;-78
2023/08/09 16:10:21;;;;;;;1.15;0.70;;;;;;;;;;5841201;28;20050;-79
2023/08/09 16:13:12;;;;;;;0.20;0.10;;;;;;;;;;5841356;28;20200;-77
2023/08/09 16:16:03;;;;;;;0.10;0.10;;;;;;;;;;5834882;28;20472;-78
2023/08/09 16:18:54;;;;;;;3.17;1.33;;;;;;;;;;5841220;28;20050;-78
2023/08/09 16:21:45;;;;;;;1.58;1.17;;;;;;;;;;5839599;28;20077;-78
2023/08/09 16:24:36;;;;;;;0.90;0.88;;;;;;;;;;5841455;28;20058;-78
2023/08/09 16:27:27;;;;;;;0.22;0.20;;;;;;;;;;5840373;28;20061;-78
2023/08/09 16:30:18;;;;;;;0.80;0.55;;;;;;;;;;5839543;28;20503;-78
2023/08/09 16:33:08;;;;;;;1.33;0.30;;;;;;;;;;5840821;28;20416;-78
2023/08/09 16:35:59;;;;;;;1.08;0.73;;;;;;;;;;5841621;28;20045;-78
2023/08/09 16:38:50;;;;;;;1.05;0.82;;;;;;;;;;5840917;28;20050;-78
2023/08/09 16:41:41;;;;;;;0.77;0.32;;;;;;;;;;5840820;28;20083;-79
2023/08/09 16:44:32;;;;;;;0.55;0.45;;;;;;;;;;5841181;28;20042;-79
2023/08/09 16:47:25;;;;;;;1.17;0.77;;;;;;;;;;5839617;28;20127;-80
2023/08/09 16:50:16;;;;;;;1.05;0.40;;;;;;;;;;5840825;28;20073;-78
2023/08/09 16:53:07;;;;;;;0.40;0.30;;;;;;;;;;5840501;28;20042;-78
2023/08/09 16:55:58;;;;;;;0.52;0.40;;;;;;;;;;5841710;28;20432;-80
2023/08/09 16:58:49;;;;;;;0.30;0.30;;;;;;;;;;5840483;28;20069;-80
2023/08/09 17:01:40;;;;;;;5.30;1.70;;;;;;;;;;5840609;28;20065;-78
2023/08/09 17:04:31;;;;;;;0.93;0.73;;;;;;;;;;5841134;28;20105;-78
2023/08/09 17:07:23;;;;;;;1.30;0.95;;;;;;;;;;5839461;28;20038;-78
2023/08/09 17:10:14;;;;;;;3.22;0.80;;;;;;;;;;5840803;28;20053;-77